Parshall, CO (80468)

2:55 PM MST on November 27, 2014 (GMT -0700)
Green Mountain Reservoir | Change Station
CLOSE
Current Station
Personal Weather Station
Location: Heeney, CO
Elevation: 7979 ft
Nearby Weather Stations

Elev 7979 ft 39.87 °N, 106.31 °W | Updated 0 second ago

Clear
Clear
46.8 °F
Feels Like 43 °F
N
8.3
Wind Variable Wind from West
Gusts 12.1 mph

Today
High -- | Low -- °F
--% Chance of Precip.
Yesterday
High -- | Low -- °F
Precip. -- in
7:03 AM 4:41 PM
Waxing Crescent, 33% visible
Pressure 30.33 in
Visibility 10.0 miles
Clouds Clear
Windchill 43 °F
Dew Point 19 °F
Humidity 33%
Rainfall 0.00 in
Snow Depth Not available.
UV 1 out of 12
Pollen .10 out of 12
Air Quality Not available.
Flu Activity Not available.
METAR K20V 272135Z AUTO 27009KT 10SM CLR 10/M06 A3033 RMK AO2

More Conditions Fewer Conditions

Pressure 30.33 in
Visibility 10.0 miles
Clouds Clear
Windchill 43 °F
Dew Point 19 °F
Humidity 33%
Rainfall 0.00 in
Snow Depth Not available.
UV 1 out of 12
Pollen .10 out of 12
Air Quality Not available.
Flu Activity Not available.
METAR K20V 272135Z AUTO 27009KT 10SM CLR 10/M06 A3033 RMK AO2

More Conditions Fewer Conditions

10-Day Weather Forecast

Almanac

Astronomy

Nov. 27, 2014 Rise Set
Actual Time
Civil Twilight
Nautical Twilight
Astronomical Twilight
Moon
Length of Visible Light
Length of Day
Tomorrow will be .
, % of the Moon is Illuminated

Today's Extremes

State Highs State Lows

Community

WunderPhotos

Upload Photos

1,774,115 photos uploaded!

WunderBlogs® & News

Nearby

Air Quality

  Air Quality AQ Index Pollutant
Not available.

Snow Depth

Station Depth Elevation

Earthquake Activity

City Distance Mag. Time & Date
Minimum magnitude displayed is 2.5.

Coastal Water Temperatures

Place Temperature

Nearby Weather Stations